ESNO

Örnsköldsvik Airport

Örnsköldsvik, Sweden
METAR ESNO 201650Z AUTO 27006KT 9999 NCD 06/02 Q1018
Observed Flight Rules
Oct-20 @ 16:50 UTC (21 minutes ago) Visual Flight Rules
Wind Visibility Clouds
270° at 6 knots 10,000+ meters
  • Clear skies
Temperatures Readings
Current 6°C / 43°F
Dewpoint 2°C / 36°F
Humidity 76%
Altimeter 30.06" Hg
Pressure 1018 hPa
Elevation 103
METAR ESNO 201650Z AUTO 27006KT 9999 NCD 06/02 Q1018
Observed Flight Rules
Oct-20 @ 16:50 UTC
(21 minutes ago)
VFR
Wind Visibility
270° at 6 knots 10,000+ meters
Clouds
  • Clear skies
Temperature Dewpoint
6°C / 43°F 2°C / 36°F
Humidity Altimeter Pressure
76% 30.06" Hg 1018 hPa